Mount Eden, California
Current Conditions -  °F | °C
As of 4:54 PM on Wednesday 22 Oct 2014 (Local Time) from KHWD Reporting Station
Clear Clear  
Wind Chill: 65°   Ceiling: Unl
Heat Index: 65°   Visibility: 10mi
Dew Point: 55°   Wind: 10mph
Humidity: 70%   Direction: 280°W
Pressure: 30.01"   Gusts: NA
Location:  37.6276°N, 122.104°W
Report Text: KHWD 222354Z AUTO 28009KT 10SM CLR 18/13 A3001 RMK AO2 SLP173 T01830128 10189 20156 56011
Loading
Personal Weather Stations






























Interactive Weather Map
Tropical Storm Tracking
New forecast layout! Learn more

10-Day Weather Forecast

Advertisements
Track Severe Weather on mobile